createdAt,value
2023-07-15T00:02:29.720Z,100854.75
2023-07-15T00:05:02.641Z,100856.19
2023-07-15T00:07:34.900Z,100843.97
2023-07-15T00:10:11.792Z,100841.44
2023-07-15T00:12:44.001Z,100841.44
2023-07-15T00:15:17.587Z,100834.91
2023-07-15T00:17:49.904Z,100835.63
2023-07-15T00:20:22.866Z,100834.59
2023-07-15T00:22:55.142Z,100825.28
2023-07-15T00:25:32.720Z,100823.41
2023-07-15T00:28:06.903Z,100825.41
2023-07-15T00:30:39.682Z,100822.91
2023-07-15T00:33:17.830Z,100814.31
2023-07-15T00:35:50.675Z,100804.72
2023-07-15T00:38:22.844Z,100808.16
2023-07-15T00:40:58.264Z,100802.69
2023-07-15T00:44:00.752Z,100802.31
2023-07-15T00:47:05.586Z,100798.50
2023-07-15T00:49:39.725Z,100806.94
2023-07-15T00:52:16.228Z,100799.22
2023-07-15T00:55:24.112Z,100799.69
2023-07-15T00:57:58.771Z,100798.72
2023-07-15T01:00:32.452Z,100793.13
2023-07-15T01:03:07.827Z,100792.28
2023-07-15T01:05:40.208Z,100790.63
2023-07-15T01:08:12.682Z,100783.13
2023-07-15T01:13:36.041Z,100790.44
2023-07-15T01:16:09.192Z,100790.09
2023-07-15T01:18:44.510Z,100792.47
2023-07-15T01:21:20.583Z,100782.59
2023-07-15T01:23:55.868Z,100777.59
2023-07-15T01:27:03.468Z,100773.88
2023-07-15T01:29:36.491Z,100771.59
2023-07-15T01:32:09.686Z,100775.03
2023-07-15T01:34:42.982Z,100769.34
2023-07-15T01:37:15.344Z,100760.16
2023-07-15T01:39:51.125Z,100748.88
2023-07-15T01:42:23.365Z,100754.56
2023-07-15T01:44:53.355Z,100746.13
2023-07-15T01:47:25.585Z,100746.25
2023-07-15T01:49:58.123Z,100747.16
2023-07-15T01:52:30.645Z,100738.72
2023-07-15T01:55:05.841Z,100737.78
2023-07-15T02:01:21.726Z,100733.81
2023-07-15T02:03:54.502Z,100734.06
2023-07-15T02:06:27.404Z,100737.13
2023-07-15T02:09:00.168Z,100739.47
2023-07-15T02:11:35.761Z,100732.31
2023-07-15T02:14:10.285Z,100735.97
2023-07-15T02:19:28.690Z,100737.28
2023-07-15T02:22:01.271Z,100745.72
2023-07-15T02:24:33.907Z,100745.53
2023-07-15T02:27:09.525Z,100736.16
2023-07-15T02:29:42.439Z,100738.28
2023-07-15T02:32:19.759Z,100736.69
2023-07-15T02:34:52.381Z,100732.72
2023-07-15T02:37:24.839Z,100731.22
2023-07-15T02:39:57.408Z,100733.13
2023-07-15T02:42:34.756Z,100735.25
2023-07-15T02:45:09.137Z,100728.78
2023-07-15T02:47:42.220Z,100732.56
2023-07-15T02:50:15.061Z,100729.00
2023-07-15T02:52:47.383Z,100735.97
2023-07-15T02:55:20.048Z,100720.66
2023-07-15T02:57:55.320Z,100728.84
2023-07-15T03:00:28.177Z,100729.31
2023-07-15T03:03:01.199Z,100724.91
2023-07-15T03:05:33.948Z,100721.56
2023-07-15T03:08:06.854Z,100725.81
2023-07-15T03:10:39.844Z,100718.94
2023-07-15T03:13:15.191Z,100720.56
2023-07-15T03:15:48.137Z,100723.75
2023-07-15T03:18:23.061Z,100721.13
2023-07-15T03:20:56.401Z,100721.88
2023-07-15T03:23:28.971Z,100721.72
2023-07-15T03:26:01.714Z,100715.81
2023-07-15T03:28:36.543Z,100712.47
2023-07-15T03:31:08.818Z,100715.22
2023-07-15T03:33:40.818Z,100704.44
2023-07-15T03:36:59.248Z,100712.63
2023-07-15T03:39:31.498Z,100697.72
2023-07-15T03:42:18.662Z,100699.06
2023-07-15T03:44:53.461Z,100701.25
2023-07-15T03:47:25.716Z,100697.25
2023-07-15T03:49:57.640Z,100698.38
2023-07-15T03:52:29.783Z,100700.88
2023-07-15T03:55:04.902Z,100689.63
2023-07-15T03:57:37.601Z,100696.44
2023-07-15T04:00:18.990Z,100693.25
2023-07-15T04:02:54.988Z,100694.75
2023-07-15T04:05:27.183Z,100688.25
2023-07-15T04:07:59.679Z,100685.28
2023-07-15T04:10:31.788Z,100685.06
2023-07-15T04:13:04.103Z,100688.63
2023-07-15T04:15:38.776Z,100690.66
2023-07-15T04:18:11.260Z,100682.94
2023-07-15T04:20:44.006Z,100686.53
2023-07-15T04:23:16.506Z,100686.13
2023-07-15T04:25:49.583Z,100693.16
2023-07-15T04:28:43.471Z,100680.50
2023-07-15T04:31:18.425Z,100684.09
2023-07-15T04:33:52.403Z,100682.94
2023-07-15T04:36:26.383Z,100686.28
2023-07-15T04:38:58.855Z,100678.59
2023-07-15T04:41:31.283Z,100688.88
2023-07-15T04:44:03.836Z,100674.00
2023-07-15T04:46:38.727Z,100672.13
2023-07-15T04:49:12.012Z,100670.22
2023-07-15T04:51:49.610Z,100668.47
2023-07-15T04:54:21.770Z,100668.81
2023-07-15T04:56:53.686Z,100678.34
2023-07-15T04:59:26.011Z,100667.38
2023-07-15T05:02:00.525Z,100669.53
2023-07-15T05:04:32.642Z,100671.56
2023-07-15T05:07:04.425Z,100675.25
2023-07-15T05:09:36.622Z,100677.59
2023-07-15T05:12:09.682Z,100673.53
2023-07-15T05:14:42.065Z,100681.44
2023-07-15T05:17:16.524Z,100672.19
2023-07-15T05:19:48.647Z,100670.81
2023-07-15T05:23:19.982Z,100668.53
2023-07-15T05:26:06.785Z,100670.44
2023-07-15T05:28:39.870Z,100668.06
2023-07-15T05:31:12.608Z,100666.91
2023-07-15T05:33:48.443Z,100664.09
2023-07-15T05:36:23.346Z,100671.50
2023-07-15T05:38:55.499Z,100667.88
2023-07-15T05:41:28.081Z,100669.88
2023-07-15T05:44:00.259Z,100667.88
2023-07-15T05:46:32.936Z,100669.31
2023-07-15T05:49:07.773Z,100671.78
2023-07-15T05:51:40.248Z,100673.94
2023-07-15T05:54:12.413Z,100662.88
2023-07-15T05:56:45.490Z,100669.78
2023-07-15T05:59:17.626Z,100673.97
2023-07-15T06:01:50.249Z,100672.44
2023-07-15T06:04:25.085Z,100678.50
2023-07-15T06:06:57.630Z,100672.59
2023-07-15T06:09:29.861Z,100673.75
2023-07-15T06:12:02.381Z,100677.66
2023-07-15T06:14:35.442Z,100664.84
2023-07-15T06:17:08.559Z,100664.69
2023-07-15T06:19:43.581Z,100668.00
2023-07-15T06:22:16.139Z,100661.78
2023-07-15T06:24:50.260Z,100667.59
2023-07-15T06:27:22.820Z,100657.06
2023-07-15T06:29:55.002Z,100655.53
2023-07-15T06:32:27.625Z,100658.50
2023-07-15T06:35:02.512Z,100656.47
2023-07-15T06:37:36.923Z,100653.81
2023-07-15T06:40:12.063Z,100646.56
2023-07-15T06:42:44.563Z,100641.97
2023-07-15T06:45:17.196Z,100650.38
2023-07-15T06:47:49.843Z,100645.28
2023-07-15T06:50:27.735Z,100644.97
2023-07-15T06:53:03.200Z,100652.56
2023-07-15T06:55:35.382Z,100652.38
2023-07-15T06:58:08.082Z,100645.31
2023-07-15T07:00:40.256Z,100649.44
2023-07-15T07:03:12.786Z,100643.28
2023-07-15T07:05:47.793Z,100645.00
2023-07-15T07:08:20.444Z,100642.63
2023-07-15T07:11:08.562Z,100643.28
2023-07-15T07:13:41.172Z,100637.19
2023-07-15T07:16:13.371Z,100636.94
2023-07-15T07:18:46.502Z,100633.47
2023-07-15T07:21:25.643Z,100635.94
2023-07-15T07:24:00.024Z,100624.53
2023-07-15T07:26:32.120Z,100625.31
2023-07-15T07:29:07.479Z,100628.44
2023-07-15T07:31:39.520Z,100629.84
2023-07-15T07:34:12.671Z,100628.97
2023-07-15T07:36:47.521Z,100632.13
2023-07-15T07:39:20.023Z,100623.13
2023-07-15T07:41:52.182Z,100620.34
2023-07-15T07:44:25.010Z,100613.22
2023-07-15T07:46:57.251Z,100621.41
2023-07-15T07:49:30.561Z,100610.41
2023-07-15T07:52:07.268Z,100607.97
2023-07-15T07:54:41.336Z,100613.84
2023-07-15T07:57:15.701Z,100606.66
2023-07-15T07:59:48.062Z,100601.75
2023-07-15T08:02:30.280Z,100605.09
2023-07-15T08:05:11.530Z,100601.31
2023-07-15T08:07:48.222Z,100597.38
2023-07-15T08:10:48.737Z,100585.81
2023-07-15T08:13:25.701Z,100584.78
2023-07-15T08:16:01.977Z,100576.72
2023-07-15T08:18:33.664Z,100577.97
2023-07-15T08:24:50.167Z,100590.34
2023-07-15T08:27:23.687Z,100584.81
2023-07-15T08:29:55.702Z,100597.97
2023-07-15T08:32:28.113Z,100601.88
2023-07-15T08:35:03.824Z,100591.47
2023-07-15T08:37:36.547Z,100591.94
2023-07-15T08:43:57.146Z,100594.28
2023-07-15T08:46:31.019Z,100572.25
2023-07-15T08:49:04.563Z,100586.03
2023-07-15T08:52:19.866Z,100587.59
2023-07-15T08:55:45.480Z,100570.47
2023-07-15T08:58:17.857Z,100580.97
2023-07-15T09:00:56.056Z,100582.16
2023-07-15T09:03:29.407Z,100578.66
2023-07-15T09:06:05.000Z,100586.47
2023-07-15T09:08:37.760Z,100575.50
2023-07-15T09:11:12.813Z,100573.50
2023-07-15T09:13:46.057Z,100570.00
2023-07-15T09:16:18.410Z,100566.97
2023-07-15T09:18:50.701Z,100571.66
2023-07-15T09:21:22.767Z,100571.63
2023-07-15T09:23:54.869Z,100574.47
2023-07-15T09:26:29.407Z,100570.38
2023-07-15T09:29:01.643Z,100561.16
2023-07-15T09:32:27.954Z,100575.59
2023-07-15T09:35:12.800Z,100544.66
2023-07-15T09:37:44.910Z,100551.00
2023-07-15T09:44:13.342Z,100550.75
2023-07-15T09:46:45.887Z,100553.44
2023-07-15T09:49:17.856Z,100553.84
2023-07-15T09:51:50.563Z,100559.06
2023-07-15T09:54:25.883Z,100547.91
2023-07-15T09:57:04.768Z,100549.72
2023-07-15T09:59:48.929Z,100548.34
2023-07-15T10:02:34.661Z,100554.25
2023-07-15T10:05:11.284Z,100561.03
2023-07-15T10:07:56.080Z,100558.34
2023-07-15T10:10:47.644Z,100570.25
2023-07-15T10:13:22.027Z,100571.88
2023-07-15T10:16:00.501Z,100568.72
2023-07-15T10:18:35.726Z,100567.69
2023-07-15T10:21:10.642Z,100559.88
2023-07-15T10:23:43.133Z,100554.97
2023-07-15T10:26:26.366Z,100557.88
2023-07-15T10:29:28.961Z,100567.06
2023-07-15T10:32:31.075Z,100574.94
2023-07-15T10:35:08.888Z,100566.13
2023-07-15T10:37:41.185Z,100560.34
2023-07-15T10:40:53.811Z,100560.34
2023-07-15T10:43:39.582Z,100565.66
2023-07-15T10:46:15.150Z,100558.31
2023-07-15T10:48:50.282Z,100555.28
2023-07-15T10:51:25.324Z,100558.50
2023-07-15T10:53:57.542Z,100554.09
2023-07-15T10:56:29.992Z,100555.16
2023-07-15T10:59:02.271Z,100560.63
2023-07-15T11:01:35.097Z,100565.03
2023-07-15T11:04:28.351Z,100563.16
2023-07-15T11:07:04.297Z,100551.47
2023-07-15T11:09:37.136Z,100558.88
2023-07-15T11:12:11.662Z,100560.69
2023-07-15T11:14:46.722Z,100560.34
2023-07-15T11:17:19.799Z,100552.00
2023-07-15T11:19:56.843Z,100541.22
2023-07-15T11:22:29.438Z,100554.28
2023-07-15T11:25:01.840Z,100552.94
2023-07-15T11:27:34.247Z,100556.00
2023-07-15T11:30:06.785Z,100560.88
2023-07-15T11:32:39.303Z,100558.47
2023-07-15T11:35:17.641Z,100550.56
2023-07-15T11:37:50.606Z,100544.06
2023-07-15T11:40:33.863Z,100541.25
2023-07-15T11:43:09.777Z,100541.66
2023-07-15T11:45:45.592Z,100528.03
2023-07-15T11:48:24.410Z,100530.78
2023-07-15T11:51:00.363Z,100534.88
2023-07-15T11:53:36.006Z,100538.22
2023-07-15T11:56:08.814Z,100533.09
2023-07-15T11:58:42.323Z,100534.44
2023-07-15T12:01:21.554Z,100529.41
2023-07-15T12:03:54.092Z,100537.25
2023-07-15T12:06:33.555Z,100530.78
2023-07-15T12:09:07.537Z,100522.03
2023-07-15T12:11:39.433Z,100518.41
2023-07-15T12:14:13.565Z,100522.38
2023-07-15T12:16:45.647Z,100516.44
2023-07-15T12:19:20.378Z,100511.34
2023-07-15T12:21:54.962Z,100506.25
2023-07-15T12:24:27.262Z,100505.28
2023-07-15T12:26:59.146Z,100504.56
2023-07-15T12:29:39.267Z,100511.25
2023-07-15T12:32:12.282Z,100506.25
2023-07-15T12:34:44.721Z,100500.84
2023-07-15T12:37:19.812Z,100493.28
2023-07-15T12:39:52.082Z,100490.22
2023-07-15T12:42:24.007Z,100487.78
2023-07-15T12:44:56.225Z,100484.16
2023-07-15T12:47:28.316Z,100484.94
2023-07-15T12:50:01.769Z,100482.19
2023-07-15T12:52:36.358Z,100484.69
2023-07-15T12:55:09.727Z,100480.50
2023-07-15T12:57:45.701Z,100479.34
2023-07-15T13:03:59.720Z,100476.56
2023-07-15T13:06:34.985Z,100475.09
2023-07-15T13:09:10.009Z,100471.41
2023-07-15T13:11:43.785Z,100465.97
2023-07-15T13:14:16.175Z,100462.16
2023-07-15T13:16:48.179Z,100453.38
2023-07-15T13:19:20.587Z,100459.28
2023-07-15T13:21:52.542Z,100467.44
2023-07-15T13:24:28.002Z,100476.44
2023-07-15T13:26:59.742Z,100471.81
2023-07-15T13:29:32.223Z,100467.50
2023-07-15T13:32:04.286Z,100460.66
2023-07-15T13:34:36.543Z,100460.38
2023-07-15T13:37:08.704Z,100458.09
2023-07-15T13:39:47.179Z,100467.03
2023-07-15T13:42:21.885Z,100463.63
2023-07-15T13:44:58.025Z,100458.41
2023-07-15T13:47:29.984Z,100463.03
2023-07-15T13:50:02.403Z,100454.22
2023-07-15T13:52:37.384Z,100454.50
2023-07-15T13:55:13.043Z,100448.53
2023-07-15T14:01:38.261Z,100456.47
2023-07-15T14:04:12.675Z,100459.47
2023-07-15T14:06:48.261Z,100446.88
2023-07-15T14:09:21.803Z,100446.09
2023-07-15T14:11:57.924Z,100447.88
2023-07-15T14:14:32.498Z,100437.06
2023-07-15T14:17:09.571Z,100438.81
2023-07-15T14:19:41.862Z,100441.97
2023-07-15T14:22:17.567Z,100443.66
2023-07-15T14:24:52.518Z,100445.16
2023-07-15T14:27:29.306Z,100450.84
2023-07-15T14:30:01.536Z,100437.75
2023-07-15T14:32:34.051Z,100443.44
2023-07-15T14:35:06.225Z,100442.41
2023-07-15T14:37:38.821Z,100441.75
2023-07-15T14:40:12.724Z,100435.00
2023-07-15T14:42:51.467Z,100430.38
2023-07-15T14:45:24.723Z,100415.84
2023-07-15T14:47:57.744Z,100411.84
2023-07-15T14:50:29.933Z,100412.75
2023-07-15T14:53:05.305Z,100404.22
2023-07-15T14:55:37.536Z,100408.84
2023-07-15T14:58:12.838Z,100406.47
2023-07-15T15:00:45.137Z,100411.78
2023-07-15T15:03:17.814Z,100411.16
2023-07-15T15:05:50.614Z,100419.97
2023-07-15T15:08:26.312Z,100425.50
2023-07-15T15:11:02.838Z,100414.38
2023-07-15T15:13:38.068Z,100408.09
2023-07-15T15:16:12.659Z,100406.88
2023-07-15T15:18:47.138Z,100400.69
2023-07-15T15:21:20.492Z,100396.59
2023-07-15T15:23:54.521Z,100395.94
2023-07-15T15:26:26.663Z,100400.81
2023-07-15T15:29:05.441Z,100391.34
2023-07-15T15:31:37.573Z,100388.84
2023-07-15T15:34:12.827Z,100388.78
2023-07-15T15:36:44.863Z,100387.75
2023-07-15T15:39:17.645Z,100380.66
2023-07-15T15:41:58.242Z,100383.00
2023-07-15T15:44:46.508Z,100381.53
2023-07-15T15:47:18.643Z,100380.75
2023-07-15T15:49:51.141Z,100375.03
2023-07-15T15:52:23.342Z,100375.38
2023-07-15T15:54:57.986Z,100379.31
2023-07-15T15:57:30.330Z,100385.06
2023-07-15T16:00:06.793Z,100385.22
2023-07-15T16:02:39.087Z,100382.03
2023-07-15T16:05:19.644Z,100382.81
2023-07-15T16:07:56.224Z,100379.50
2023-07-15T16:10:35.242Z,100391.13
2023-07-15T16:13:09.977Z,100386.94
2023-07-15T16:15:51.529Z,100380.72
2023-07-15T16:18:24.201Z,100382.13
2023-07-15T16:20:56.841Z,100403.75
2023-07-15T16:23:28.936Z,100410.50
2023-07-15T16:26:01.923Z,100410.59
2023-07-15T16:28:33.949Z,100400.13
2023-07-15T16:31:09.742Z,100403.69
2023-07-15T16:33:42.029Z,100404.38
2023-07-15T16:36:14.766Z,100410.41
2023-07-15T16:38:46.919Z,100412.81
2023-07-15T16:41:21.255Z,100400.47
2023-07-15T16:43:55.045Z,100394.41
2023-07-15T16:47:10.256Z,100403.16
2023-07-15T16:50:27.917Z,100394.66
2023-07-15T16:53:00.544Z,100391.09
2023-07-15T16:55:33.100Z,100397.50
2023-07-15T16:58:06.211Z,100387.56
2023-07-15T17:00:39.052Z,100390.78
2023-07-15T17:03:14.387Z,100389.38
2023-07-15T17:05:46.842Z,100388.06
2023-07-15T17:08:19.570Z,100389.50
2023-07-15T17:10:52.121Z,100390.13
2023-07-15T17:13:24.771Z,100381.72
2023-07-15T17:15:56.975Z,100386.56
2023-07-15T17:18:32.554Z,100386.25
2023-07-15T17:24:32.203Z,100393.53
2023-07-15T17:27:04.372Z,100378.53
2023-07-15T17:30:12.000Z,100387.97
2023-07-15T17:33:10.661Z,100384.63
2023-07-15T17:36:01.725Z,100377.00
2023-07-15T17:38:34.622Z,100377.97
2023-07-15T17:41:08.186Z,100380.13
2023-07-15T17:43:40.690Z,100376.47
2023-07-15T17:46:13.320Z,100371.00
2023-07-15T17:48:45.986Z,100385.91
2023-07-15T17:51:21.045Z,100389.91
2023-07-15T17:53:53.643Z,100392.50
2023-07-15T17:56:25.901Z,100395.88
2023-07-15T17:58:58.362Z,100391.34
2023-07-15T18:01:30.849Z,100382.41
2023-07-15T18:04:03.426Z,100377.47
2023-07-15T18:06:38.412Z,100374.56
2023-07-15T18:09:11.107Z,100373.84
2023-07-15T18:15:55.343Z,100368.56
2023-07-15T18:18:47.042Z,100362.56
2023-07-15T18:21:20.985Z,100370.34
2023-07-15T18:23:57.463Z,100361.38
2023-07-15T18:34:29.127Z,100328.66
2023-07-15T18:37:33.281Z,100318.34
2023-07-15T18:40:44.940Z,100310.72
2023-07-15T18:43:17.398Z,100309.38
2023-07-15T18:45:49.460Z,100299.94
2023-07-15T18:48:21.887Z,100296.63
2023-07-15T18:51:42.571Z,100299.50
2023-07-15T18:54:15.109Z,100305.34
2023-07-15T18:56:49.657Z,100305.94
2023-07-15T18:59:21.839Z,100296.38
2023-07-15T19:01:53.819Z,100286.56
2023-07-15T19:04:26.286Z,100282.41
2023-07-15T19:07:05.346Z,100285.53
2023-07-15T19:09:38.010Z,100294.09
2023-07-15T19:12:13.521Z,100294.47
2023-07-15T19:14:46.061Z,100298.72
2023-07-15T19:17:18.452Z,100290.75
2023-07-15T19:19:50.732Z,100287.22
2023-07-15T19:22:22.669Z,100296.25
2023-07-15T19:24:55.021Z,100312.63
2023-07-15T19:27:29.760Z,100309.38
2023-07-15T19:30:02.019Z,100314.19
2023-07-15T19:32:36.717Z,100309.81
2023-07-15T19:35:09.983Z,100316.22
2023-07-15T19:37:41.884Z,100319.88
2023-07-15T19:40:14.943Z,100325.13
2023-07-15T19:42:50.121Z,100318.84
2023-07-15T19:45:22.867Z,100329.69
2023-07-15T19:47:57.454Z,100316.75
2023-07-15T19:51:39.618Z,100328.09
2023-07-15T19:54:14.870Z,100326.72
2023-07-15T19:56:47.525Z,100331.41
2023-07-15T19:59:22.279Z,100323.47
2023-07-15T20:01:54.534Z,100328.44
2023-07-15T20:04:26.458Z,100336.19
2023-07-15T20:06:58.709Z,100351.38
2023-07-15T20:09:30.562Z,100372.34
2023-07-15T20:12:03.031Z,100391.63
2023-07-15T20:14:37.694Z,100416.16
2023-07-15T20:17:11.511Z,100434.91
2023-07-15T20:19:43.694Z,100444.03
2023-07-15T20:22:17.817Z,100460.44
2023-07-15T20:24:50.533Z,100464.94
2023-07-15T20:27:23.209Z,100479.59
2023-07-15T20:29:58.581Z,100487.34
2023-07-15T20:32:31.448Z,100495.94
2023-07-15T20:35:04.043Z,100488.50
2023-07-15T20:37:36.944Z,100509.72
2023-07-15T20:40:19.447Z,100527.59
2023-07-15T20:42:52.190Z,100530.31
2023-07-15T20:45:27.695Z,100517.94
2023-07-15T20:48:00.610Z,100531.72
2023-07-15T20:50:33.383Z,100545.78
2023-07-15T20:53:09.107Z,100549.38
2023-07-15T20:55:43.253Z,100566.75
2023-07-15T20:58:16.159Z,100580.47
2023-07-15T21:00:55.547Z,100584.63
2023-07-15T21:03:29.407Z,100590.38
2023-07-15T21:06:04.882Z,100594.56
2023-07-15T21:08:40.640Z,100602.28
2023-07-15T21:11:15.339Z,100594.31
2023-07-15T21:13:48.150Z,100597.34
2023-07-15T21:16:23.337Z,100614.16
2023-07-15T21:18:56.421Z,100613.59
2023-07-15T21:21:29.019Z,100618.84
2023-07-15T21:24:01.645Z,100619.13
2023-07-15T21:26:34.140Z,100607.28
2023-07-15T21:29:10.850Z,100609.44
2023-07-15T21:31:45.954Z,100598.44
2023-07-15T21:34:18.173Z,100604.50
2023-07-15T21:36:51.234Z,100607.81
2023-07-15T21:39:23.552Z,100592.38
2023-07-15T21:41:55.533Z,100566.75
2023-07-15T21:44:27.902Z,100537.75
2023-07-15T21:47:02.380Z,100480.03
2023-07-15T21:49:34.637Z,100458.19
2023-07-15T21:52:23.164Z,100436.50
2023-07-15T21:54:55.369Z,100427.75
2023-07-15T21:57:27.266Z,100420.53
2023-07-15T21:59:59.563Z,100412.19
2023-07-15T22:02:34.514Z,100416.91
2023-07-15T22:05:09.926Z,100417.03
2023-07-15T22:07:44.344Z,100432.16
2023-07-15T22:10:16.749Z,100441.38
2023-07-15T22:12:48.829Z,100443.16
2023-07-15T22:15:21.273Z,100450.59
2023-07-15T22:17:55.940Z,100443.19
2023-07-15T22:20:28.564Z,100439.66
2023-07-15T22:23:10.976Z,100439.94
2023-07-15T22:25:43.564Z,100397.06
2023-07-15T22:28:15.505Z,100401.53
2023-07-15T22:30:47.926Z,100368.34
2023-07-15T22:33:22.428Z,100350.25
2023-07-15T22:35:54.768Z,100329.91
2023-07-15T22:38:26.832Z,100345.44
2023-07-15T22:40:59.404Z,100326.13
2023-07-15T22:43:31.463Z,100360.53
2023-07-15T22:46:04.112Z,100342.09
2023-07-15T22:48:39.404Z,100324.69
2023-07-15T22:51:11.680Z,100319.75
2023-07-15T22:53:43.793Z,100318.69
2023-07-15T22:56:18.087Z,100304.34
2023-07-15T22:58:50.114Z,100308.75
2023-07-15T23:01:22.456Z,100297.47
2023-07-15T23:04:21.341Z,100301.53
2023-07-15T23:06:56.421Z,100299.28
2023-07-15T23:09:28.448Z,100298.81
2023-07-15T23:12:01.196Z,100309.25
2023-07-15T23:14:33.142Z,100314.19
2023-07-15T23:17:05.630Z,100317.91
2023-07-15T23:19:40.290Z,100313.22
2023-07-15T23:22:12.702Z,100326.69
2023-07-15T23:24:44.869Z,100324.22
2023-07-15T23:27:17.401Z,100328.38
2023-07-15T23:29:49.667Z,100323.22
2023-07-15T23:32:35.596Z,100317.41
2023-07-15T23:35:14.381Z,100340.38
2023-07-15T23:37:48.186Z,100350.28
2023-07-15T23:40:20.522Z,100349.69
2023-07-15T23:42:53.177Z,100341.72
2023-07-15T23:45:27.481Z,100344.19
2023-07-15T23:48:03.166Z,100352.75
2023-07-15T23:50:38.687Z,100341.81
2023-07-15T23:53:11.222Z,100348.13
2023-07-15T23:55:43.361Z,100355.31
2023-07-15T23:58:15.983Z,100355.75
